createdAt,value
2023-01-10T00:01:53.940Z,84.88
2023-01-10T00:04:21.597Z,85.09
2023-01-10T00:06:49.204Z,85.79
2023-01-10T00:09:16.810Z,85.14
2023-01-10T00:12:03.434Z,85.32
2023-01-10T00:14:33.424Z,85.80
2023-01-10T00:17:01.068Z,85.63
2023-01-10T00:19:28.859Z,86.26
2023-01-10T00:22:12.463Z,85.63
2023-01-10T00:24:42.250Z,84.79
2023-01-10T00:27:14.737Z,84.74
2023-01-10T00:29:42.347Z,85.11
2023-01-10T00:32:09.940Z,85.05
2023-01-10T00:34:37.590Z,84.57
2023-01-10T00:37:05.146Z,84.52
2023-01-10T00:39:32.769Z,83.87
2023-01-10T00:42:18.009Z,84.70
2023-01-10T00:44:47.422Z,84.31
2023-01-10T00:47:15.092Z,84.04
2023-01-10T00:49:42.658Z,84.27
2023-01-10T00:52:10.230Z,84.46
2023-01-10T00:54:37.773Z,84.57
2023-01-10T00:57:05.445Z,85.21
2023-01-10T00:59:32.997Z,85.69
2023-01-10T01:02:02.079Z,86.05
2023-01-10T01:04:33.952Z,86.22
2023-01-10T01:07:02.131Z,86.45
2023-01-10T01:09:29.983Z,86.34
2023-01-10T01:11:57.632Z,86.51
2023-01-10T01:14:25.875Z,85.76
2023-01-10T01:16:53.456Z,85.63
2023-01-10T01:19:22.327Z,86.09
2023-01-10T01:21:49.980Z,85.73
2023-01-10T01:24:17.581Z,86.03
2023-01-10T01:26:45.773Z,85.16
2023-01-10T01:29:13.762Z,85.67
2023-01-10T01:31:41.361Z,85.63
2023-01-10T01:34:09.044Z,85.22
2023-01-10T01:36:38.003Z,85.06
2023-01-10T01:39:06.167Z,85.75
2023-01-10T01:42:02.894Z,85.47
2023-01-10T01:44:32.711Z,84.84
2023-01-10T01:47:06.149Z,84.63
2023-01-10T01:49:38.140Z,84.65
2023-01-10T01:52:11.602Z,84.94
2023-01-10T01:54:39.404Z,84.53
2023-01-10T01:57:10.940Z,84.75
2023-01-10T01:59:41.711Z,84.53
2023-01-10T02:02:14.434Z,84.15
2023-01-10T02:04:48.650Z,84.43
2023-01-10T02:07:18.526Z,84.28
2023-01-10T02:09:50.652Z,84.08
2023-01-10T02:12:18.648Z,83.64
2023-01-10T02:14:49.138Z,83.05
2023-01-10T02:17:18.017Z,82.79
2023-01-10T02:19:52.717Z,83.01
2023-01-10T02:22:49.850Z,82.83
2023-01-10T02:25:49.529Z,83.42
2023-01-10T02:28:58.233Z,83.07
2023-01-10T02:31:42.966Z,83.19
2023-01-10T02:34:19.778Z,82.37
2023-01-10T02:36:57.671Z,82.73
2023-01-10T02:39:30.982Z,83.33
2023-01-10T02:42:05.643Z,83.98
2023-01-10T02:44:41.966Z,82.99
2023-01-10T02:47:10.272Z,83.69
2023-01-10T02:49:49.586Z,84.65
2023-01-10T02:52:21.872Z,84.87
2023-01-10T02:54:51.677Z,84.60
2023-01-10T02:57:48.494Z,85.31
2023-01-10T03:00:29.233Z,85.55
2023-01-10T03:03:10.171Z,86.15
2023-01-10T03:05:53.259Z,85.66
2023-01-10T03:08:31.857Z,84.38
2023-01-10T03:11:02.392Z,84.49
2023-01-10T03:13:36.326Z,85.46
2023-01-10T03:16:08.031Z,84.90
2023-01-10T03:18:41.677Z,85.30
2023-01-10T03:21:12.349Z,84.23
2023-01-10T03:23:40.666Z,84.46
2023-01-10T03:26:11.030Z,83.79
2023-01-10T03:28:46.002Z,84.88
2023-01-10T03:31:17.867Z,83.74
2023-01-10T03:33:46.117Z,84.31
2023-01-10T03:36:26.764Z,83.73
2023-01-10T03:38:56.408Z,84.51
2023-01-10T03:41:35.011Z,84.19
2023-01-10T03:44:30.966Z,84.61
2023-01-10T03:47:02.529Z,84.72
2023-01-10T03:49:31.390Z,84.54
2023-01-10T03:52:01.734Z,84.45
2023-01-10T03:54:29.915Z,83.69
2023-01-10T03:56:57.572Z,83.16
2023-01-10T03:59:27.299Z,82.39
2023-01-10T04:01:56.165Z,83.41
2023-01-10T04:04:24.124Z,83.00
2023-01-10T04:06:51.714Z,83.31
2023-01-10T04:09:20.755Z,82.85
2023-01-10T04:11:48.340Z,82.41
2023-01-10T04:14:15.912Z,82.46
2023-01-10T04:16:43.468Z,82.61
2023-01-10T04:19:11.089Z,82.31
2023-01-10T04:21:38.697Z,82.07
2023-01-10T04:24:06.913Z,82.12
2023-01-10T04:26:35.839Z,82.18
2023-01-10T04:29:03.558Z,81.48
2023-01-10T04:31:31.231Z,81.78
2023-01-10T04:33:58.875Z,81.42
2023-01-10T04:36:27.496Z,81.20
2023-01-10T04:38:55.469Z,81.58
2023-01-10T04:41:23.128Z,81.56
2023-01-10T04:43:52.235Z,80.49
2023-01-10T04:46:19.830Z,80.25
2023-01-10T04:48:47.614Z,80.27
2023-01-10T04:51:15.562Z,81.30
2023-01-10T04:53:43.140Z,81.29
2023-01-10T04:56:17.143Z,81.60
2023-01-10T04:58:44.850Z,81.23
2023-01-10T05:01:15.229Z,80.91
2023-01-10T05:03:42.988Z,81.28
2023-01-10T05:06:11.126Z,80.58
2023-01-10T05:08:38.708Z,80.71
2023-01-10T05:11:06.292Z,79.86
2023-01-10T05:13:34.020Z,80.94
2023-01-10T05:16:01.934Z,80.30
2023-01-10T05:18:31.113Z,80.14
2023-01-10T05:21:01.466Z,79.64
2023-01-10T05:23:29.507Z,79.87
2023-01-10T05:25:57.220Z,80.21
2023-01-10T05:28:25.202Z,80.16
2023-01-10T05:30:52.854Z,80.31
2023-01-10T05:33:20.497Z,79.85
2023-01-10T05:35:49.389Z,80.65
2023-01-10T05:38:16.971Z,79.49
2023-01-10T05:40:44.535Z,80.18
2023-01-10T05:43:12.673Z,80.30
2023-01-10T05:45:40.792Z,81.25
2023-01-10T05:48:08.401Z,79.70
2023-01-10T05:50:36.027Z,79.89
2023-01-10T05:53:06.052Z,80.50
2023-01-10T05:55:34.082Z,80.78
2023-01-10T05:58:01.992Z,80.73
2023-01-10T06:00:29.772Z,80.94
2023-01-10T06:02:57.873Z,81.26
2023-01-10T06:05:25.614Z,81.78
2023-01-10T06:07:53.216Z,80.83
2023-01-10T06:10:22.156Z,81.13
2023-01-10T06:12:50.058Z,81.65
2023-01-10T06:15:17.915Z,81.28
2023-01-10T06:17:45.718Z,81.37
2023-01-10T06:20:14.453Z,80.98
2023-01-10T06:22:42.986Z,80.69
2023-01-10T06:25:12.235Z,80.82
2023-01-10T06:27:41.736Z,80.92
2023-01-10T06:30:11.245Z,80.56
2023-01-10T06:32:39.210Z,81.39
2023-01-10T06:35:07.422Z,80.26
2023-01-10T06:37:35.183Z,80.49
2023-01-10T06:40:02.783Z,80.54
2023-01-10T06:42:30.381Z,80.46
2023-01-10T06:44:59.278Z,80.46
2023-01-10T06:47:26.921Z,80.34
2023-01-10T06:49:54.877Z,79.89
2023-01-10T06:52:22.615Z,80.15
2023-01-10T06:54:53.017Z,80.35
2023-01-10T06:57:20.786Z,79.57
2023-01-10T06:59:48.410Z,79.81
2023-01-10T07:02:17.438Z,79.09
2023-01-10T07:04:45.083Z,79.15
2023-01-10T07:07:12.711Z,78.73
2023-01-10T07:09:40.335Z,78.66
2023-01-10T07:12:08.126Z,78.47
2023-01-10T07:14:35.786Z,78.93
2023-01-10T07:17:03.352Z,78.44
2023-01-10T07:19:32.278Z,78.39
2023-01-10T07:21:59.943Z,77.54
2023-01-10T07:24:27.548Z,77.67
2023-01-10T07:26:56.018Z,78.47
2023-01-10T07:29:23.756Z,77.50
2023-01-10T07:31:52.622Z,76.76
2023-01-10T07:34:20.247Z,76.71
2023-01-10T07:36:49.179Z,76.41
2023-01-10T07:39:16.782Z,75.78
2023-01-10T07:41:44.578Z,75.56
2023-01-10T07:44:12.271Z,75.25
2023-01-10T07:46:39.843Z,75.83
2023-01-10T07:49:07.465Z,75.51
2023-01-10T07:51:35.088Z,75.27
2023-01-10T07:54:04.421Z,75.43
2023-01-10T07:56:32.097Z,75.43
2023-01-10T07:59:01.146Z,74.70
2023-01-10T08:01:29.563Z,74.54
2023-01-10T08:03:58.215Z,73.62
2023-01-10T08:06:25.964Z,74.38
2023-01-10T08:08:53.598Z,73.39
2023-01-10T08:11:22.616Z,73.14
2023-01-10T08:13:50.475Z,73.77
2023-01-10T08:16:20.779Z,73.89
2023-01-10T08:18:48.426Z,73.65
2023-01-10T08:21:16.077Z,73.48
2023-01-10T08:23:43.681Z,72.93
2023-01-10T08:26:11.392Z,73.26
2023-01-10T08:28:40.430Z,73.16
2023-01-10T08:31:09.114Z,72.79
2023-01-10T08:33:38.825Z,72.71
2023-01-10T08:36:06.877Z,72.29
2023-01-10T08:38:34.583Z,72.32
2023-01-10T08:41:02.202Z,72.35
2023-01-10T08:43:29.906Z,72.48
2023-01-10T08:45:58.808Z,72.48
2023-01-10T08:48:26.502Z,73.18
2023-01-10T08:50:54.115Z,73.22
2023-01-10T08:53:21.712Z,72.63
2023-01-10T08:55:50.223Z,73.35
2023-01-10T08:58:17.890Z,73.74
2023-01-10T09:00:46.007Z,73.62
2023-01-10T09:03:15.056Z,73.65
2023-01-10T09:05:42.741Z,73.15
2023-01-10T09:08:10.963Z,73.39
2023-01-10T09:10:38.746Z,74.39
2023-01-10T09:13:06.511Z,73.66
2023-01-10T09:15:36.975Z,74.06
2023-01-10T09:18:06.808Z,73.06
2023-01-10T09:20:37.960Z,73.81
2023-01-10T09:23:06.745Z,74.17
2023-01-10T09:25:34.675Z,73.83
2023-01-10T09:28:03.927Z,74.14
2023-01-10T09:30:31.809Z,74.27
2023-01-10T09:33:00.480Z,73.99
2023-01-10T09:35:30.153Z,73.57
2023-01-10T09:38:00.984Z,73.39
2023-01-10T09:40:40.917Z,73.66
2023-01-10T09:43:17.689Z,73.64
2023-01-10T09:45:54.144Z,73.36
2023-01-10T09:48:27.840Z,73.61
2023-01-10T09:51:11.927Z,73.39
2023-01-10T09:53:44.723Z,73.16
2023-01-10T09:56:15.472Z,72.88
2023-01-10T09:58:45.042Z,72.63
2023-01-10T10:01:17.837Z,72.03
2023-01-10T10:03:53.263Z,72.32
2023-01-10T10:06:22.974Z,72.26
2023-01-10T10:08:53.658Z,72.61
2023-01-10T10:11:43.464Z,72.27
2023-01-10T10:14:22.101Z,72.02
2023-01-10T10:17:02.943Z,72.13
2023-01-10T10:19:41.712Z,72.02
2023-01-10T10:22:19.832Z,71.58
2023-01-10T10:25:02.181Z,71.06
2023-01-10T10:27:37.200Z,70.69
2023-01-10T10:30:17.790Z,69.95
2023-01-10T10:33:04.698Z,69.83
2023-01-10T10:35:37.072Z,70.13
2023-01-10T10:38:10.010Z,70.71
2023-01-10T10:40:44.143Z,70.35
2023-01-10T10:43:21.057Z,70.74
2023-01-10T10:45:53.952Z,70.82
2023-01-10T10:48:26.857Z,70.36
2023-01-10T10:51:06.570Z,70.30
2023-01-10T10:53:35.624Z,69.96
2023-01-10T10:56:07.531Z,70.38
2023-01-10T10:58:35.219Z,70.35
2023-01-10T11:01:02.976Z,70.42
2023-01-10T11:03:39.740Z,69.84
2023-01-10T11:06:08.822Z,69.29
2023-01-10T11:08:39.092Z,69.03
2023-01-10T11:11:18.907Z,67.15
2023-01-10T11:13:50.983Z,66.09
2023-01-10T11:16:27.841Z,66.41
2023-01-10T11:19:22.342Z,66.18
2023-01-10T11:21:54.245Z,66.41
2023-01-10T11:24:26.918Z,65.67
2023-01-10T11:26:57.655Z,64.86
2023-01-10T11:29:27.772Z,63.92
2023-01-10T11:31:57.221Z,65.44
2023-01-10T11:34:29.862Z,65.56
2023-01-10T11:37:00.603Z,65.78
2023-01-10T11:39:29.231Z,65.58
2023-01-10T11:41:59.892Z,65.67
2023-01-10T11:44:29.398Z,64.79
2023-01-10T11:46:59.629Z,64.69
2023-01-10T11:49:31.835Z,65.69
2023-01-10T11:52:04.420Z,66.63
2023-01-10T11:54:33.784Z,67.29
2023-01-10T11:57:05.168Z,67.57
2023-01-10T11:59:33.724Z,67.68
2023-01-10T12:02:05.735Z,67.65
2023-01-10T12:04:40.617Z,68.34
2023-01-10T12:07:11.867Z,66.90
2023-01-10T12:09:43.416Z,66.39
2023-01-10T12:12:21.326Z,66.54
2023-01-10T12:14:50.440Z,67.11
2023-01-10T12:17:27.455Z,67.12
2023-01-10T12:20:00.502Z,67.10
2023-01-10T12:22:32.913Z,66.24
2023-01-10T12:25:01.877Z,65.69
2023-01-10T12:27:31.789Z,65.23
2023-01-10T12:30:05.330Z,65.51
2023-01-10T12:32:39.139Z,65.88
2023-01-10T12:35:14.960Z,64.83
2023-01-10T12:37:48.665Z,65.86
2023-01-10T12:40:20.602Z,66.35
2023-01-10T12:43:16.688Z,66.54
2023-01-10T12:45:50.119Z,66.42
2023-01-10T12:48:25.407Z,67.61
2023-01-10T12:50:58.627Z,68.18
2023-01-10T12:53:32.731Z,67.30
2023-01-10T12:56:04.753Z,67.32
2023-01-10T12:58:43.097Z,67.22
2023-01-10T13:01:15.437Z,66.24
2023-01-10T13:03:45.812Z,65.27
2023-01-10T13:06:23.572Z,65.01
2023-01-10T13:08:52.453Z,65.59
2023-01-10T13:11:23.398Z,65.28
2023-01-10T13:13:58.018Z,65.43
2023-01-10T13:16:34.085Z,65.26
2023-01-10T13:19:05.124Z,65.31
2023-01-10T13:21:34.485Z,65.56
2023-01-10T13:24:04.432Z,65.82
2023-01-10T13:26:52.239Z,65.55
2023-01-10T13:29:23.545Z,65.92
2023-01-10T13:31:57.393Z,65.50
2023-01-10T13:34:27.803Z,66.19
2023-01-10T13:36:59.218Z,65.67
2023-01-10T13:39:32.960Z,64.88
2023-01-10T13:42:48.727Z,64.98
2023-01-10T13:45:21.649Z,65.03
2023-01-10T13:48:04.838Z,65.08
2023-01-10T13:51:07.853Z,64.74
2023-01-10T13:54:06.205Z,65.14
2023-01-10T13:56:37.079Z,64.34
2023-01-10T13:59:29.157Z,64.93
2023-01-10T14:02:18.496Z,65.96
2023-01-10T14:04:51.063Z,66.36
2023-01-10T14:07:25.063Z,65.73
2023-01-10T14:09:59.039Z,65.71
2023-01-10T14:12:33.928Z,65.09
2023-01-10T14:15:06.026Z,64.72
2023-01-10T14:17:37.419Z,65.29
2023-01-10T14:20:24.688Z,65.92
2023-01-10T14:23:01.066Z,65.36
2023-01-10T14:25:29.899Z,65.05
2023-01-10T14:27:58.994Z,64.78
2023-01-10T14:30:29.766Z,63.92
2023-01-10T14:33:02.848Z,64.20
2023-01-10T14:35:35.371Z,65.16
2023-01-10T14:38:04.985Z,65.96
2023-01-10T14:40:40.788Z,66.18
2023-01-10T14:43:13.039Z,66.76
2023-01-10T14:45:49.349Z,66.04
2023-01-10T14:48:31.021Z,66.68
2023-01-10T14:51:20.764Z,66.40
2023-01-10T14:53:49.442Z,67.07
2023-01-10T14:56:22.045Z,66.96
2023-01-10T14:58:49.684Z,66.49
2023-01-10T15:01:23.823Z,66.22
2023-01-10T15:03:53.523Z,65.92
2023-01-10T15:06:21.147Z,65.71
2023-01-10T15:08:57.373Z,65.79
2023-01-10T15:11:27.711Z,66.18
2023-01-10T15:14:00.059Z,66.35
2023-01-10T15:16:29.765Z,66.20
2023-01-10T15:18:58.966Z,66.46
2023-01-10T15:21:26.807Z,66.97
2023-01-10T15:23:54.382Z,66.87
2023-01-10T15:26:30.203Z,67.65
2023-01-10T15:29:10.464Z,67.48
2023-01-10T15:31:39.113Z,67.98
2023-01-10T15:34:15.924Z,67.64
2023-01-10T15:36:47.253Z,67.81
2023-01-10T15:39:21.031Z,67.38
2023-01-10T15:41:49.079Z,67.12
2023-01-10T15:44:24.876Z,66.47
2023-01-10T15:46:56.801Z,67.55
2023-01-10T15:49:26.440Z,67.67
2023-01-10T15:51:54.149Z,67.38
2023-01-10T15:54:34.187Z,67.71
2023-01-10T15:57:08.041Z,67.41
2023-01-10T15:59:39.637Z,67.73
2023-01-10T16:02:22.611Z,67.64
2023-01-10T16:04:54.375Z,67.99
2023-01-10T16:07:26.837Z,67.36
2023-01-10T16:09:58.800Z,67.49
2023-01-10T16:12:59.400Z,67.42
2023-01-10T16:15:29.952Z,67.55
2023-01-10T16:17:58.323Z,67.51
2023-01-10T16:20:31.129Z,66.87
2023-01-10T16:23:00.975Z,66.63
2023-01-10T16:25:32.667Z,66.61
2023-01-10T16:28:00.934Z,66.45
2023-01-10T16:30:30.215Z,66.98
2023-01-10T16:32:59.247Z,67.28
2023-01-10T16:35:28.230Z,67.45
2023-01-10T16:37:57.956Z,67.41
2023-01-10T16:40:28.705Z,67.61
2023-01-10T16:43:14.239Z,67.26
2023-01-10T16:45:42.008Z,67.34
2023-01-10T16:48:10.517Z,67.60
2023-01-10T16:50:41.041Z,66.98
2023-01-10T16:53:10.385Z,67.64
2023-01-10T16:55:41.949Z,66.61
2023-01-10T16:58:10.081Z,66.91
2023-01-10T17:00:38.324Z,66.44
2023-01-10T17:03:10.102Z,66.13
2023-01-10T17:05:39.309Z,66.72
2023-01-10T17:08:07.364Z,66.70
2023-01-10T17:10:36.520Z,66.86
2023-01-10T17:13:05.821Z,66.58
2023-01-10T17:15:34.884Z,67.17
2023-01-10T17:18:02.505Z,68.03
2023-01-10T17:20:30.689Z,68.04
2023-01-10T17:22:59.624Z,67.13
2023-01-10T17:25:27.268Z,67.57
2023-01-10T17:27:54.865Z,67.26
2023-01-10T17:30:22.531Z,67.81
2023-01-10T17:32:50.112Z,68.14
2023-01-10T17:35:18.315Z,69.28
2023-01-10T17:37:49.660Z,68.86
2023-01-10T17:40:18.913Z,69.59
2023-01-10T17:42:46.935Z,70.01
2023-01-10T17:45:15.077Z,70.18
2023-01-10T17:47:42.631Z,71.54
2023-01-10T17:50:10.534Z,70.70
2023-01-10T17:52:38.210Z,71.62
2023-01-10T17:55:07.458Z,71.42
2023-01-10T17:57:39.159Z,72.29
2023-01-10T18:00:07.909Z,71.59
2023-01-10T18:02:35.594Z,70.77
2023-01-10T18:05:03.246Z,71.11
2023-01-10T18:07:30.994Z,69.91
2023-01-10T18:09:58.890Z,70.28
2023-01-10T18:12:26.454Z,67.81
2023-01-10T18:14:55.504Z,67.71
2023-01-10T18:17:23.065Z,67.30
2023-01-10T18:19:50.730Z,68.19
2023-01-10T18:22:35.842Z,69.10
2023-01-10T18:25:03.647Z,69.85
2023-01-10T18:27:31.226Z,69.84
2023-01-10T18:30:00.313Z,70.83
2023-01-10T18:32:27.989Z,70.00
2023-01-10T18:34:55.959Z,69.43
2023-01-10T18:37:23.499Z,68.19
2023-01-10T18:39:51.192Z,68.00
2023-01-10T18:42:18.941Z,68.08
2023-01-10T18:44:46.560Z,67.84
2023-01-10T18:47:15.660Z,66.80
2023-01-10T18:49:43.269Z,67.15
2023-01-10T18:52:10.907Z,66.47
2023-01-10T18:54:38.466Z,67.33
2023-01-10T18:57:06.016Z,66.90
2023-01-10T18:59:33.667Z,67.09
2023-01-10T19:02:01.315Z,66.73
2023-01-10T19:04:30.447Z,66.94
2023-01-10T19:06:58.198Z,66.73
2023-01-10T19:09:25.862Z,66.52
2023-01-10T19:11:53.522Z,66.86
2023-01-10T19:14:21.351Z,67.18
2023-01-10T19:16:49.081Z,67.91
2023-01-10T19:19:16.899Z,69.23
2023-01-10T19:21:46.011Z,68.86
2023-01-10T19:24:22.094Z,69.25
2023-01-10T19:26:50.008Z,68.49
2023-01-10T19:29:18.304Z,70.33
2023-01-10T19:31:48.161Z,71.64
2023-01-10T19:34:16.031Z,70.92
2023-01-10T19:36:45.427Z,70.66
2023-01-10T19:39:15.363Z,70.72
2023-01-10T19:41:43.551Z,70.09
2023-01-10T19:44:14.271Z,70.12
2023-01-10T19:46:44.013Z,70.08
2023-01-10T19:49:17.641Z,70.51
2023-01-10T19:51:47.575Z,70.67
2023-01-10T19:54:16.671Z,70.88
2023-01-10T19:56:44.657Z,69.99
2023-01-10T19:59:13.694Z,70.25
2023-01-10T20:01:42.014Z,70.42
2023-01-10T20:04:09.864Z,71.21
2023-01-10T20:06:39.327Z,70.65
2023-01-10T20:09:07.569Z,70.73
2023-01-10T20:11:38.327Z,71.59
2023-01-10T20:14:06.715Z,71.04
2023-01-10T20:16:34.969Z,71.35
2023-01-10T20:19:02.908Z,71.74
2023-01-10T20:21:30.604Z,72.09
2023-01-10T20:23:58.421Z,71.35
2023-01-10T20:26:26.962Z,70.73
2023-01-10T20:28:58.869Z,71.62
2023-01-10T20:31:26.631Z,72.09
2023-01-10T20:33:54.686Z,71.46
2023-01-10T20:36:24.299Z,71.76
2023-01-10T20:38:52.310Z,71.75
2023-01-10T20:41:21.719Z,71.66
2023-01-10T20:43:49.537Z,71.24
2023-01-10T20:46:20.292Z,72.03
2023-01-10T20:48:48.861Z,72.58
2023-01-10T20:51:19.302Z,71.13
2023-01-10T20:53:47.099Z,70.85
2023-01-10T20:56:17.191Z,71.52
2023-01-10T20:58:45.245Z,72.69
2023-01-10T21:01:24.834Z,72.77
2023-01-10T21:03:57.962Z,73.40
2023-01-10T21:06:25.833Z,73.99
2023-01-10T21:08:53.518Z,74.23
2023-01-10T21:11:21.976Z,73.83
2023-01-10T21:13:49.793Z,74.12
2023-01-10T21:16:20.742Z,74.62
2023-01-10T21:18:48.970Z,75.56
2023-01-10T21:21:19.455Z,76.17
2023-01-10T21:23:47.521Z,76.76
2023-01-10T21:26:16.660Z,77.68
2023-01-10T21:28:47.271Z,79.07
2023-01-10T21:31:16.266Z,80.38
2023-01-10T21:33:44.597Z,80.81
2023-01-10T21:36:13.423Z,81.48
2023-01-10T21:38:43.732Z,82.88
2023-01-10T21:41:14.599Z,83.42
2023-01-10T21:43:44.463Z,84.10
2023-01-10T21:46:12.901Z,84.12
2023-01-10T21:48:40.712Z,84.67
2023-01-10T21:51:08.299Z,85.19
2023-01-10T21:53:36.898Z,84.77
2023-01-10T21:56:06.271Z,85.71
2023-01-10T21:58:34.079Z,86.03
2023-01-10T22:01:01.722Z,85.88
2023-01-10T22:03:31.215Z,86.12
2023-01-10T22:05:58.803Z,86.48
2023-01-10T22:08:26.503Z,86.10
2023-01-10T22:10:54.193Z,86.38
2023-01-10T22:13:26.009Z,86.52
2023-01-10T22:15:58.384Z,86.33
2023-01-10T22:18:26.172Z,86.25
2023-01-10T22:20:55.649Z,85.60
2023-01-10T22:23:24.106Z,85.57
2023-01-10T22:25:59.444Z,86.87
2023-01-10T22:28:28.573Z,86.58
2023-01-10T22:30:56.660Z,86.35
2023-01-10T22:33:25.173Z,86.10
2023-01-10T22:35:52.764Z,87.16
2023-01-10T22:38:20.719Z,86.25
2023-01-10T22:40:48.314Z,85.90
2023-01-10T22:43:15.917Z,86.86
2023-01-10T22:45:44.953Z,86.49
2023-01-10T22:48:12.511Z,85.67
2023-01-10T22:50:40.526Z,85.82
2023-01-10T22:53:08.122Z,85.70
2023-01-10T22:55:35.693Z,87.06
2023-01-10T22:58:03.330Z,87.29
2023-01-10T23:00:31.130Z,87.19
2023-01-10T23:03:00.044Z,87.20
2023-01-10T23:05:27.626Z,86.80
2023-01-10T23:07:55.421Z,87.41
2023-01-10T23:10:30.256Z,87.16
2023-01-10T23:12:59.657Z,87.55
2023-01-10T23:15:27.326Z,87.44
2023-01-10T23:17:55.124Z,86.59
2023-01-10T23:20:24.191Z,86.53
2023-01-10T23:22:51.749Z,87.18
2023-01-10T23:25:19.290Z,86.61
2023-01-10T23:27:46.847Z,87.29
2023-01-10T23:30:14.848Z,87.57
2023-01-10T23:32:42.423Z,88.21
2023-01-10T23:35:10.767Z,88.44
2023-01-10T23:37:39.675Z,87.63
2023-01-10T23:40:08.276Z,87.29
2023-01-10T23:42:35.847Z,87.94
2023-01-10T23:45:03.455Z,87.28
2023-01-10T23:47:30.991Z,86.41
2023-01-10T23:49:58.534Z,86.37
2023-01-10T23:52:26.152Z,85.93
2023-01-10T23:54:55.219Z,85.77
2023-01-10T23:57:22.872Z,86.12
2023-01-10T23:59:50.414Z,86.69
